Terminal Aerodrome Forecast
Issued by NWS

Home | Current Version | Previous Version | Text Only | Print | Product List | Glossary On
Versions: 1 2 3 4 5 6 7 8 9 10 11 12
000
FTUS45 KTFX 182300
TAFGTF
TAF
KGTF 182333Z 1900/1924 22015G21KT P6SM BKN150
     FM190200 23010KT P6SM SCT150
     FM191700 23016G22KT P6SM BKN120=

USA.gov is the U.S. government's official web portal to all federal, state and local government web resources and services.